Terminal Aerodrome Forecast
Issued by NWS

Home | Current Version | Previous Version | Text Only | Print | Product List | Glossary Off
Versions: 1 2 3 4 5 6 7 8 9 10 11 12 13 14 15 16 17 18 19 20 21 22 23 24

000
FTUS45 KGGW 171128 AAB
TAFGDV
TAF AMD
KGDV 171128Z 1711/1806 19005KT 6SM BR SCT002
      TEMPO 1712/1715 1SM BR SCT002
     FM171500 18009KT P6SM FEW210
     FM180300 15005KT P6SM FEW150=

USA.gov is the U.S. government's official web portal to all federal, state and local government web resources and services.